This is the latest recevied weather packets stored in our database for station/object EFHKFMI. If no packets are shown the sender has not sent any weather packets the latest 10 day(s).
| Time | Temp. | Humidity | Pressure | Rain* | Wind** | Luminosity | Snow |
|---|---|---|---|---|---|---|---|
| 1777724821 | 20.56° C | 33% | 1008.6 hPa | 0 mm | - | - | - |
| 1777723621 | 20.56° C | 33% | 1008.8 hPa | 0 mm | - | - | - |
| 1777722421 | 20° C | 35% | 1009 hPa | 0 mm | - | - | - |
| 1777721221 | 19.44° C | 39% | 1009 hPa | 0 mm | - | - | - |
| 1777720021 | 20° C | 38% | 1009.1 hPa | 0 mm | - | - | - |
| 1777718821 | 19.44° C | 39% | 1009.2 hPa | 0 mm | - | - | - |
| 1777717621 | 18.89° C | 41% | 1009.4 hPa | 0 mm | - | - | - |
| 1777716421 | 20° C | 40% | 1009.6 hPa | 0 mm | - | - | - |
| 1777715221 | 19.44° C | 39% | 1009.6 hPa | 0 mm | - | - | - |
| 1777714021 | 19.44° C | 37% | 1009.9 hPa | 0 mm | - | - | - |
| 1777712821 | 20° C | 35% | 1010 hPa | 0 mm | - | - | - |
| 1777711621 | 19.44° C | 37% | 1010.2 hPa | 0 mm | - | - | - |
| 1777710421 | 18.89° C | 39% | 1010.3 hPa | 0 mm | - | - | - |
| 1777709220 | 18.33° C | 39% | 1010.4 hPa | 0 mm | - | - | - |
| 1777708020 | 17.22° C | 40% | 1010.5 hPa | 0 mm | - | - | - |
| 1777706820 | 16.11° C | 43% | 1010.7 hPa | 0 mm | - | - | - |
| 1777705620 | 15° C | 49% | 1010.8 hPa | 0 mm | - | - | - |
| 1777704420 | 14.44° C | 53% | 1010.9 hPa | 0 mm | - | - | - |
| 1777703220 | 12.22° C | 58% | 1011.1 hPa | 0 mm | - | - | - |
| 1777702020 | 11.67° C | 62% | 1011.2 hPa | 0 mm | - | - | - |
| 1777700820 | 10.56° C | 67% | 1011.3 hPa | 0 mm | - | - | - |
| 1777699620 | 9.44° C | 70% | 1011.4 hPa | 0 mm | - | - | - |
| 1777698420 | 8.33° C | 75% | 1011.6 hPa | 0 mm | - | - | - |
| 1777697220 | 7.22° C | 79% | 1011.8 hPa | 0 mm | - | - | - |
| 1777696020 | 6.67° C | 80% | 1012 hPa | 0 mm | - | - | - |
* Rain latest hour (hover to see other rain measurements)
** Current wind speed in m/s (hover to see current wind gust speed)